createdAt,value
2022-07-26T00:01:31.610Z,58.73
2022-07-26T00:03:59.058Z,59.09
2022-07-26T00:06:26.329Z,59.01
2022-07-26T00:08:53.187Z,59.32
2022-07-26T00:11:20.039Z,58.95
2022-07-26T00:13:47.647Z,58.47
2022-07-26T00:16:14.834Z,58.82
2022-07-26T00:18:41.758Z,59.35
2022-07-26T00:21:08.447Z,59.18
2022-07-26T00:23:35.270Z,58.98
2022-07-26T00:26:02.155Z,58.85
2022-07-26T00:28:28.646Z,58.37
2022-07-26T00:30:55.438Z,58.98
2022-07-26T00:33:21.924Z,59.05
2022-07-26T00:35:48.648Z,59.49
2022-07-26T00:38:15.274Z,59.08
2022-07-26T00:40:41.791Z,59.23
2022-07-26T00:43:08.191Z,58.75
2022-07-26T00:45:34.650Z,58.97
2022-07-26T00:48:01.210Z,58.60
2022-07-26T00:50:28.067Z,58.50
2022-07-26T00:52:55.223Z,58.73
2022-07-26T00:55:21.853Z,58.77
2022-07-26T00:57:49.515Z,58.99
2022-07-26T01:00:19.231Z,58.11
2022-07-26T01:02:46.547Z,58.33
2022-07-26T01:05:13.449Z,58.46
2022-07-26T01:07:40.218Z,58.13
2022-07-26T01:10:12.330Z,58.31
2022-07-26T01:12:40.043Z,58.49
2022-07-26T01:15:07.837Z,58.53
2022-07-26T01:17:36.321Z,58.11
2022-07-26T01:20:07.787Z,58.26
2022-07-26T01:22:34.239Z,58.53
2022-07-26T01:25:00.759Z,58.81
2022-07-26T01:27:32.029Z,58.88
2022-07-26T01:30:00.419Z,58.84
2022-07-26T01:32:27.696Z,59.27
2022-07-26T01:34:54.279Z,59.53
2022-07-26T01:37:20.767Z,59.64
2022-07-26T01:39:47.431Z,60.03
2022-07-26T01:42:13.882Z,60.75
2022-07-26T01:44:40.642Z,60.45
2022-07-26T01:47:07.292Z,60.78
2022-07-26T01:49:33.790Z,60.62
2022-07-26T01:52:00.602Z,60.74
2022-07-26T01:54:27.650Z,60.52
2022-07-26T01:56:54.122Z,60.53
2022-07-26T01:59:20.619Z,60.72
2022-07-26T02:01:47.210Z,60.44
2022-07-26T02:04:33.735Z,59.93
2022-07-26T02:07:00.375Z,59.88
2022-07-26T02:09:29.971Z,60.05
2022-07-26T02:12:04.565Z,60.30
2022-07-26T02:14:31.105Z,60.27
2022-07-26T02:17:00.373Z,60.56
2022-07-26T02:19:31.800Z,60.39
2022-07-26T02:21:59.319Z,61.11
2022-07-26T02:24:30.319Z,61.29
2022-07-26T02:26:58.588Z,62.28
2022-07-26T02:29:27.541Z,62.25
2022-07-26T02:31:54.186Z,62.23
2022-07-26T02:34:20.681Z,61.95
2022-07-26T02:36:47.473Z,63.01
2022-07-26T02:39:14.371Z,63.00
2022-07-26T02:41:40.854Z,63.37
2022-07-26T02:44:08.240Z,63.71
2022-07-26T02:46:35.370Z,63.98
2022-07-26T02:49:02.915Z,64.41
2022-07-26T02:51:29.458Z,63.85
2022-07-26T02:53:56.380Z,63.83
2022-07-26T02:56:24.400Z,64.50
2022-07-26T02:58:50.835Z,65.08
2022-07-26T03:01:17.368Z,65.15
2022-07-26T03:03:47.296Z,65.26
2022-07-26T03:06:17.231Z,65.05
2022-07-26T03:08:43.701Z,64.55
2022-07-26T03:11:12.123Z,64.85
2022-07-26T03:13:39.020Z,64.70
2022-07-26T03:16:06.807Z,65.11
2022-07-26T03:18:33.582Z,65.40
2022-07-26T03:21:00.429Z,66.04
2022-07-26T03:23:28.310Z,65.99
2022-07-26T03:25:55.389Z,66.11
2022-07-26T03:28:21.922Z,66.60
2022-07-26T03:30:48.826Z,66.69
2022-07-26T03:33:30.667Z,66.42
2022-07-26T03:35:57.275Z,66.75
2022-07-26T03:38:23.978Z,67.53
2022-07-26T03:40:50.768Z,67.32
2022-07-26T03:43:21.223Z,67.47
2022-07-26T03:45:49.590Z,67.37
2022-07-26T03:48:16.046Z,67.40
2022-07-26T03:50:43.026Z,68.09
2022-07-26T03:53:09.455Z,68.35
2022-07-26T03:55:54.739Z,68.46
2022-07-26T03:58:21.906Z,68.83
2022-07-26T04:00:48.849Z,68.71
2022-07-26T04:03:15.568Z,68.32
2022-07-26T04:05:46.342Z,68.95
2022-07-26T04:08:15.736Z,68.48
2022-07-26T04:10:45.758Z,68.74
2022-07-26T04:13:12.257Z,68.80
2022-07-26T04:15:38.676Z,68.32
2022-07-26T04:18:05.191Z,68.78
2022-07-26T04:20:31.835Z,69.26
2022-07-26T04:22:58.606Z,69.55
2022-07-26T04:25:25.766Z,70.65
2022-07-26T04:27:52.392Z,70.72
2022-07-26T04:30:18.858Z,70.38
2022-07-26T04:32:46.482Z,70.91
2022-07-26T04:35:14.631Z,71.13
2022-07-26T04:37:42.824Z,71.09
2022-07-26T04:40:11.442Z,71.79
2022-07-26T04:42:39.543Z,71.83
2022-07-26T04:45:08.459Z,71.74
2022-07-26T04:47:35.489Z,70.83
2022-07-26T04:50:03.848Z,71.82
2022-07-26T04:52:30.371Z,71.78
2022-07-26T04:54:56.918Z,72.20
2022-07-26T04:57:23.554Z,71.97
2022-07-26T04:59:58.316Z,70.99
2022-07-26T05:02:36.828Z,71.42
2022-07-26T05:05:04.972Z,71.05
2022-07-26T05:07:42.062Z,71.30
2022-07-26T05:10:10.132Z,70.91
2022-07-26T05:12:37.011Z,70.66
2022-07-26T05:15:04.520Z,70.62
2022-07-26T05:17:31.190Z,70.46
2022-07-26T05:20:03.365Z,70.70
2022-07-26T05:22:30.505Z,70.56
2022-07-26T05:24:57.123Z,70.45
2022-07-26T05:27:23.613Z,70.81
2022-07-26T05:29:50.430Z,71.25
2022-07-26T05:32:16.996Z,71.44
2022-07-26T05:34:43.423Z,70.91
2022-07-26T05:37:10.523Z,70.44
2022-07-26T05:39:37.392Z,70.35
2022-07-26T05:42:03.888Z,70.82
2022-07-26T05:44:30.483Z,70.94
2022-07-26T05:46:57.028Z,71.00
2022-07-26T05:49:23.599Z,70.80
2022-07-26T05:51:50.375Z,69.88
2022-07-26T05:54:17.031Z,69.75
2022-07-26T05:56:49.444Z,69.96
2022-07-26T05:59:15.922Z,70.05
2022-07-26T06:01:42.403Z,70.62
2022-07-26T06:04:10.682Z,69.91
2022-07-26T06:06:37.428Z,69.57
2022-07-26T06:09:04.009Z,69.81
2022-07-26T06:11:30.561Z,69.50
2022-07-26T06:13:57.032Z,69.49
2022-07-26T06:16:23.520Z,69.18
2022-07-26T06:18:50.708Z,68.43
2022-07-26T06:21:17.169Z,69.34
2022-07-26T06:23:43.605Z,68.88
2022-07-26T06:26:10.123Z,68.70
2022-07-26T06:28:38.798Z,68.06
2022-07-26T06:31:05.951Z,68.34
2022-07-26T06:33:33.003Z,68.86
2022-07-26T06:35:59.525Z,67.47
2022-07-26T06:38:26.658Z,66.80
2022-07-26T06:40:53.340Z,67.08
2022-07-26T06:43:20.702Z,66.97
2022-07-26T06:45:47.445Z,66.52
2022-07-26T06:48:14.415Z,67.18
2022-07-26T06:50:41.239Z,66.85
2022-07-26T06:53:07.734Z,66.88
2022-07-26T06:55:34.209Z,66.47
2022-07-26T06:58:00.710Z,65.95
2022-07-26T07:00:27.412Z,65.97
2022-07-26T07:02:54.019Z,65.22
2022-07-26T07:05:20.546Z,63.62
2022-07-26T07:07:47.186Z,64.08
2022-07-26T07:10:14.909Z,64.40
2022-07-26T07:12:43.584Z,64.42
2022-07-26T07:15:10.761Z,64.34
2022-07-26T07:17:37.359Z,63.27
2022-07-26T07:20:05.328Z,62.57
2022-07-26T07:22:32.430Z,62.46
2022-07-26T07:24:59.052Z,61.94
2022-07-26T07:27:27.330Z,62.50
2022-07-26T07:29:54.340Z,62.59
2022-07-26T07:32:22.935Z,61.72
2022-07-26T07:34:51.691Z,60.94
2022-07-26T07:37:20.180Z,60.86
2022-07-26T07:39:50.318Z,60.44
2022-07-26T07:42:18.408Z,59.91
2022-07-26T07:44:44.890Z,60.47
2022-07-26T07:47:11.977Z,60.54
2022-07-26T07:49:38.561Z,60.53
2022-07-26T07:52:05.356Z,59.94
2022-07-26T07:54:31.900Z,60.39
2022-07-26T07:56:58.978Z,61.68
2022-07-26T07:59:25.996Z,63.37
2022-07-26T08:01:52.600Z,62.51
2022-07-26T08:04:19.295Z,62.88
2022-07-26T08:06:50.380Z,62.27
2022-07-26T08:09:18.971Z,66.13
2022-07-26T08:11:45.765Z,73.17
2022-07-26T08:14:17.961Z,79.23
2022-07-26T08:16:44.748Z,84.15
2022-07-26T08:19:11.555Z,85.39
2022-07-26T08:21:38.369Z,86.81
2022-07-26T08:24:06.552Z,88.68
2022-07-26T08:26:33.249Z,89.94
2022-07-26T08:29:00.536Z,90.87
2022-07-26T08:31:29.042Z,92.00
2022-07-26T08:33:56.043Z,92.72
2022-07-26T08:36:23.051Z,91.53
2022-07-26T08:38:49.636Z,90.78
2022-07-26T08:41:17.951Z,89.22
2022-07-26T08:43:52.362Z,89.09
2022-07-26T08:46:25.790Z,87.46
2022-07-26T08:48:54.071Z,88.44
2022-07-26T08:51:23.867Z,88.75
2022-07-26T08:53:53.982Z,88.94
2022-07-26T08:56:20.465Z,88.48
2022-07-26T08:58:47.274Z,88.34
2022-07-26T09:01:14.376Z,88.77
2022-07-26T09:03:45.138Z,88.94
2022-07-26T09:06:17.926Z,89.25
2022-07-26T09:08:47.063Z,87.29
2022-07-26T09:11:28.511Z,88.22
2022-07-26T09:13:59.904Z,89.17
2022-07-26T09:16:28.163Z,90.64
2022-07-26T09:19:07.895Z,91.12
2022-07-26T09:21:39.188Z,90.24
2022-07-26T09:24:06.094Z,90.64
2022-07-26T09:26:33.204Z,90.72
2022-07-26T09:29:09.676Z,88.49
2022-07-26T09:31:37.854Z,90.12
2022-07-26T09:34:06.421Z,88.33
2022-07-26T09:36:33.330Z,88.15
2022-07-26T09:39:02.629Z,87.14
2022-07-26T09:41:34.804Z,86.88
2022-07-26T09:44:19.464Z,88.35
2022-07-26T09:46:58.149Z,87.52
2022-07-26T09:49:30.971Z,86.14
2022-07-26T09:52:15.916Z,86.93
2022-07-26T09:54:45.872Z,86.00
2022-07-26T09:57:19.301Z,86.15
2022-07-26T09:59:47.257Z,84.88
2022-07-26T10:02:14.027Z,85.59
2022-07-26T10:04:44.353Z,85.50
2022-07-26T10:07:11.181Z,85.38
2022-07-26T10:09:46.393Z,85.91
2022-07-26T10:12:15.516Z,85.36
2022-07-26T10:14:45.683Z,84.52
2022-07-26T10:17:32.347Z,82.00
2022-07-26T10:20:10.744Z,81.54
2022-07-26T10:22:47.821Z,81.13
2022-07-26T10:25:17.289Z,80.86
2022-07-26T10:27:48.854Z,79.17
2022-07-26T10:30:18.338Z,80.24
2022-07-26T10:32:50.778Z,78.65
2022-07-26T10:35:44.960Z,78.34
2022-07-26T10:38:26.114Z,75.14
2022-07-26T10:41:03.228Z,73.46
2022-07-26T10:43:40.660Z,72.05
2022-07-26T10:46:17.672Z,71.13
2022-07-26T10:49:04.572Z,69.48
2022-07-26T10:51:39.378Z,68.38
2022-07-26T10:54:09.010Z,68.18
2022-07-26T10:56:36.069Z,68.16
2022-07-26T10:59:04.852Z,68.21
2022-07-26T11:01:39.555Z,66.96
2022-07-26T11:04:17.390Z,66.37
2022-07-26T11:06:45.531Z,67.42
2022-07-26T11:09:12.595Z,67.24
2022-07-26T11:11:39.534Z,67.57
2022-07-26T11:14:15.896Z,66.55
2022-07-26T11:16:42.914Z,65.76
2022-07-26T11:19:14.786Z,64.58
2022-07-26T11:21:41.959Z,64.41
2022-07-26T11:24:09.313Z,65.27
2022-07-26T11:26:46.814Z,64.77
2022-07-26T11:29:17.501Z,63.39
2022-07-26T11:31:55.922Z,61.20
2022-07-26T11:34:33.717Z,60.76
2022-07-26T11:37:03.284Z,60.02
2022-07-26T11:39:32.748Z,60.30
2022-07-26T11:42:03.251Z,60.49
2022-07-26T11:44:32.052Z,58.38
2022-07-26T11:47:00.002Z,59.70
2022-07-26T11:50:01.202Z,60.40
2022-07-26T11:52:21.272Z,61.81
2022-07-26T11:54:53.407Z,62.75
2022-07-26T11:57:20.754Z,63.14
2022-07-26T11:59:50.690Z,63.34
2022-07-26T12:02:17.795Z,62.44
2022-07-26T12:04:44.827Z,62.27
2022-07-26T12:07:18.302Z,62.28
2022-07-26T12:09:52.947Z,62.13
2022-07-26T12:12:27.336Z,61.80
2022-07-26T12:15:05.783Z,61.19
2022-07-26T12:17:34.514Z,60.78
2022-07-26T12:20:17.451Z,60.57
2022-07-26T12:23:00.387Z,60.66
2022-07-26T12:25:29.185Z,60.50
2022-07-26T12:27:56.896Z,60.91
2022-07-26T12:30:23.840Z,60.55
2022-07-26T12:32:55.321Z,59.48
2022-07-26T12:35:32.203Z,60.22
2022-07-26T12:37:59.656Z,61.12
2022-07-26T12:40:30.457Z,59.20
2022-07-26T12:43:02.778Z,58.93
2022-07-26T12:45:35.068Z,58.27
2022-07-26T12:48:06.530Z,56.90
2022-07-26T12:50:33.382Z,57.28
2022-07-26T12:53:02.825Z,56.30
2022-07-26T12:55:29.650Z,55.45
2022-07-26T12:57:57.187Z,54.51
2022-07-26T13:00:24.381Z,53.64
2022-07-26T13:02:52.796Z,53.50
2022-07-26T13:05:19.324Z,56.08
2022-07-26T13:07:45.895Z,56.20
2022-07-26T13:12:59.538Z,58.53
2022-07-26T13:15:37.090Z,58.28
2022-07-26T13:18:05.326Z,58.53
2022-07-26T13:20:32.625Z,57.96
2022-07-26T13:22:59.320Z,57.62
2022-07-26T13:25:29.487Z,57.14
2022-07-26T13:28:04.667Z,57.44
2022-07-26T13:30:31.229Z,56.74
2022-07-26T13:32:57.821Z,56.69
2022-07-26T13:35:24.468Z,56.07
2022-07-26T13:37:50.873Z,56.36
2022-07-26T13:40:17.432Z,56.24
2022-07-26T13:42:43.888Z,56.73
2022-07-26T13:45:11.166Z,55.84
2022-07-26T13:47:37.604Z,55.34
2022-07-26T13:50:04.332Z,55.42
2022-07-26T13:52:33.665Z,54.64
2022-07-26T13:55:00.121Z,55.28
2022-07-26T13:57:47.998Z,54.53
2022-07-26T14:00:14.138Z,53.66
2022-07-26T14:02:40.644Z,54.73
2022-07-26T14:05:07.477Z,54.55
2022-07-26T14:07:33.952Z,54.92
2022-07-26T14:10:00.400Z,55.14
2022-07-26T14:12:27.279Z,55.14
2022-07-26T14:14:53.718Z,55.19
2022-07-26T14:17:20.444Z,54.94
2022-07-26T14:19:46.849Z,54.76
2022-07-26T14:22:13.481Z,54.79
2022-07-26T14:24:39.953Z,54.44
2022-07-26T14:27:06.406Z,52.59
2022-07-26T14:29:32.909Z,52.09
2022-07-26T14:31:59.576Z,51.74
2022-07-26T14:34:26.460Z,52.01
2022-07-26T14:36:52.890Z,52.38
2022-07-26T14:39:19.352Z,52.46
2022-07-26T14:41:45.908Z,52.98
2022-07-26T14:44:12.733Z,52.13
2022-07-26T14:46:39.910Z,52.02
2022-07-26T14:49:06.441Z,53.27
2022-07-26T14:51:32.925Z,52.58
2022-07-26T14:53:59.565Z,52.02
2022-07-26T14:56:26.204Z,50.55
2022-07-26T14:58:52.943Z,51.13
2022-07-26T15:01:19.592Z,50.54
2022-07-26T15:03:46.072Z,51.21
2022-07-26T15:06:12.771Z,50.72
2022-07-26T15:08:39.261Z,50.55
2022-07-26T15:11:05.979Z,50.97
2022-07-26T15:13:32.651Z,50.88
2022-07-26T15:15:59.503Z,52.08
2022-07-26T15:18:26.575Z,51.94
2022-07-26T15:20:53.645Z,52.26
2022-07-26T15:23:20.159Z,52.29
2022-07-26T15:25:49.686Z,52.33
2022-07-26T15:28:16.762Z,52.25
2022-07-26T15:30:43.572Z,52.61
2022-07-26T15:33:10.042Z,52.59
2022-07-26T15:35:37.116Z,53.33
2022-07-26T15:38:04.158Z,52.99
2022-07-26T15:40:31.080Z,53.51
2022-07-26T15:42:57.631Z,53.55
2022-07-26T15:45:24.910Z,52.97
2022-07-26T15:47:55.924Z,52.37
2022-07-26T15:50:24.837Z,52.99
2022-07-26T15:52:51.262Z,52.74
2022-07-26T15:55:19.079Z,52.26
2022-07-26T15:57:47.556Z,52.43
2022-07-26T16:00:15.216Z,52.38
2022-07-26T16:02:42.206Z,52.96
2022-07-26T16:05:09.547Z,52.40
2022-07-26T16:07:36.322Z,52.78
2022-07-26T16:10:03.764Z,53.04
2022-07-26T16:12:30.265Z,52.13
2022-07-26T16:14:57.224Z,52.23
2022-07-26T16:17:23.840Z,52.96
2022-07-26T16:19:50.696Z,53.54
2022-07-26T16:22:17.432Z,53.07
2022-07-26T16:24:43.937Z,53.36
2022-07-26T16:27:10.360Z,52.80
2022-07-26T16:29:36.880Z,52.84
2022-07-26T16:32:03.759Z,52.88
2022-07-26T16:34:32.680Z,52.96
2022-07-26T16:36:59.314Z,51.77
2022-07-26T16:39:25.860Z,51.30
2022-07-26T16:41:52.571Z,51.33
2022-07-26T16:44:19.104Z,52.09
2022-07-26T16:46:45.601Z,52.41
2022-07-26T16:49:12.522Z,50.82
2022-07-26T16:51:39.347Z,51.23
2022-07-26T16:54:05.857Z,50.42
2022-07-26T16:56:32.527Z,50.97
2022-07-26T16:58:59.273Z,51.22
2022-07-26T17:01:25.941Z,51.33
2022-07-26T17:03:52.540Z,51.26
2022-07-26T17:06:19.052Z,51.06
2022-07-26T17:08:45.503Z,50.19
2022-07-26T17:11:12.128Z,51.16
2022-07-26T17:13:38.624Z,51.04
2022-07-26T17:16:05.343Z,51.43
2022-07-26T17:18:32.048Z,51.97
2022-07-26T17:20:59.232Z,52.34
2022-07-26T17:23:26.668Z,51.75
2022-07-26T17:25:53.118Z,52.19
2022-07-26T17:28:19.721Z,51.70
2022-07-26T17:30:46.195Z,51.46
2022-07-26T17:33:12.759Z,52.07
2022-07-26T17:35:39.299Z,51.46
2022-07-26T17:38:05.734Z,51.48
2022-07-26T17:40:34.246Z,51.91
2022-07-26T17:43:00.973Z,51.72
2022-07-26T17:45:28.109Z,53.00
2022-07-26T17:47:54.756Z,52.53
2022-07-26T17:50:38.291Z,52.32
2022-07-26T17:53:05.256Z,51.51
2022-07-26T17:55:31.747Z,52.28
2022-07-26T17:57:58.514Z,51.52
2022-07-26T18:00:28.811Z,50.32
2022-07-26T18:02:56.155Z,50.28
2022-07-26T18:05:24.289Z,51.19
2022-07-26T18:07:52.739Z,51.27
2022-07-26T18:10:19.467Z,51.88
2022-07-26T18:12:46.011Z,51.69
2022-07-26T18:15:12.671Z,51.62
2022-07-26T18:17:39.661Z,51.88
2022-07-26T18:20:07.400Z,52.06
2022-07-26T18:22:34.091Z,52.19
2022-07-26T18:25:00.549Z,52.73
2022-07-26T18:27:28.071Z,52.42
2022-07-26T18:29:55.422Z,52.56
2022-07-26T18:32:22.566Z,52.91
2022-07-26T18:34:52.151Z,52.40
2022-07-26T18:37:20.608Z,51.79
2022-07-26T18:39:48.124Z,52.44
2022-07-26T18:42:14.942Z,52.08
2022-07-26T18:44:41.459Z,52.34
2022-07-26T18:47:08.021Z,52.60
2022-07-26T18:49:35.393Z,52.60
2022-07-26T18:52:08.430Z,53.18
2022-07-26T18:54:35.996Z,53.77
2022-07-26T18:57:02.670Z,52.91
2022-07-26T18:59:29.731Z,53.32
2022-07-26T19:01:57.898Z,53.33
2022-07-26T19:04:25.094Z,53.88
2022-07-26T19:06:51.998Z,53.34
2022-07-26T19:09:18.479Z,53.27
2022-07-26T19:11:48.031Z,52.82
2022-07-26T19:14:14.600Z,53.18
2022-07-26T19:16:41.110Z,53.63
2022-07-26T19:19:07.525Z,53.89
2022-07-26T19:21:34.313Z,53.83
2022-07-26T19:24:00.745Z,53.72
2022-07-26T19:26:27.770Z,53.54
2022-07-26T19:28:54.354Z,53.77
2022-07-26T19:31:22.117Z,54.56
2022-07-26T19:33:48.978Z,55.34
2022-07-26T19:36:18.152Z,55.27
2022-07-26T19:38:52.359Z,55.45
2022-07-26T19:41:19.926Z,55.20
2022-07-26T19:43:46.492Z,55.67
2022-07-26T19:46:13.049Z,54.89
2022-07-26T19:48:39.714Z,55.44
2022-07-26T19:51:06.242Z,56.03
2022-07-26T19:53:32.825Z,56.13
2022-07-26T19:55:59.574Z,56.59
2022-07-26T19:58:26.971Z,56.97
2022-07-26T20:00:53.894Z,57.22
2022-07-26T20:03:20.602Z,57.53
2022-07-26T20:05:47.112Z,57.28
2022-07-26T20:08:13.601Z,58.03
2022-07-26T20:10:40.140Z,58.37
2022-07-26T20:13:06.761Z,58.46
2022-07-26T20:15:33.207Z,58.52
2022-07-26T20:17:59.872Z,58.93
2022-07-26T20:20:26.872Z,59.48
2022-07-26T20:22:53.390Z,59.10
2022-07-26T20:25:21.883Z,59.38
2022-07-26T20:27:51.332Z,59.94
2022-07-26T20:30:18.270Z,60.27
2022-07-26T20:32:44.921Z,60.69
2022-07-26T20:35:11.406Z,60.94
2022-07-26T20:37:38.441Z,60.91
2022-07-26T20:40:05.626Z,60.46
2022-07-26T20:42:34.849Z,60.79
2022-07-26T20:45:01.971Z,60.54
2022-07-26T20:47:28.828Z,61.05
2022-07-26T20:49:58.474Z,61.41
2022-07-26T20:52:29.598Z,61.94
2022-07-26T20:54:56.267Z,61.94
2022-07-26T20:57:23.482Z,62.32
2022-07-26T20:59:50.093Z,62.08
2022-07-26T21:02:16.693Z,62.57
2022-07-26T21:04:43.570Z,62.45
2022-07-26T21:07:10.034Z,62.29
2022-07-26T21:09:36.936Z,63.10
2022-07-26T21:12:03.969Z,63.34
2022-07-26T21:14:30.564Z,63.47
2022-07-26T21:16:57.538Z,63.09
2022-07-26T21:19:24.017Z,63.22
2022-07-26T21:21:51.250Z,63.35
2022-07-26T21:24:17.785Z,63.04
2022-07-26T21:26:45.459Z,63.25
2022-07-26T21:29:12.198Z,63.51
2022-07-26T21:31:38.911Z,63.88
2022-07-26T21:34:05.379Z,64.47
2022-07-26T21:36:31.887Z,64.73
2022-07-26T21:38:58.921Z,64.81
2022-07-26T21:41:25.350Z,65.21
2022-07-26T21:43:52.194Z,65.47
2022-07-26T21:46:18.745Z,65.75
2022-07-26T21:48:45.329Z,66.14
2022-07-26T21:51:11.867Z,66.87
2022-07-26T21:53:38.331Z,67.35
2022-07-26T21:56:05.599Z,67.02
2022-07-26T21:58:36.329Z,67.13
2022-07-26T22:01:07.046Z,67.01
2022-07-26T22:03:35.972Z,67.43
2022-07-26T22:06:02.481Z,67.87
2022-07-26T22:08:29.059Z,68.33
2022-07-26T22:10:55.554Z,68.72
2022-07-26T22:13:22.067Z,68.90
2022-07-26T22:15:49.176Z,69.02
2022-07-26T22:18:15.919Z,68.49
2022-07-26T22:20:42.989Z,69.19
2022-07-26T22:23:12.212Z,69.17
2022-07-26T22:25:39.525Z,69.29
2022-07-26T22:28:07.614Z,69.30
2022-07-26T22:30:35.043Z,68.90
2022-07-26T22:33:04.935Z,69.18
2022-07-26T22:35:36.390Z,68.64
2022-07-26T22:38:08.323Z,68.13
2022-07-26T22:40:35.526Z,67.26
2022-07-26T22:43:05.272Z,67.35
2022-07-26T22:45:32.563Z,67.21
2022-07-26T22:47:59.641Z,67.15
2022-07-26T22:50:26.308Z,67.29
2022-07-26T22:52:53.152Z,68.13
2022-07-26T22:55:20.274Z,67.95
2022-07-26T22:57:46.943Z,68.27
2022-07-26T23:00:15.786Z,68.07
2022-07-26T23:02:42.801Z,68.19
2022-07-26T23:05:10.015Z,68.69
2022-07-26T23:07:36.831Z,69.15
2022-07-26T23:10:06.426Z,69.06
2022-07-26T23:12:33.166Z,69.33
2022-07-26T23:14:59.979Z,69.27
2022-07-26T23:17:27.095Z,69.44
2022-07-26T23:19:53.668Z,69.73
2022-07-26T23:22:20.877Z,70.22
2022-07-26T23:24:47.421Z,70.09
2022-07-26T23:27:19.813Z,70.15
2022-07-26T23:29:49.094Z,70.54
2022-07-26T23:32:16.371Z,70.64
2022-07-26T23:34:43.013Z,70.45
2022-07-26T23:37:09.553Z,70.60
2022-07-26T23:39:36.099Z,70.45
2022-07-26T23:42:03.030Z,70.86
2022-07-26T23:44:31.000Z,70.68
2022-07-26T23:46:59.181Z,69.95
2022-07-26T23:49:25.924Z,70.79
2022-07-26T23:51:53.252Z,71.38
2022-07-26T23:54:19.794Z,71.61
2022-07-26T23:56:46.319Z,71.17
2022-07-26T23:59:13.675Z,72.60
